Millsap, Texas
Current Conditions -  °F | °C
As of 6:53 PM on Monday 22 Dec 2014 (Local Time) from KMWL Reporting Station
Clear Clear  
Wind Chill: 54°   Ceiling: Unl
Heat Index: 54°   Visibility: 10mi
Dew Point: 43°   Wind: 7mph
Humidity: 66%   Direction: 270°W
Pressure: 29.67"   Gusts: NA
Location:  32.75°N, 98.01°W
Report Text: KMWL 230053Z AUTO 27006KT 10SM CLR 12/06 A2967 RMK AO2 PRESRR SLP043 T01220061
Loading
Personal Weather Stations






























Interactive Weather Map New forecast layout! Learn more

10-Day Weather Forecast

Advertisements
Track Severe Weather on mobile